Aeroporto :
LOGIN :

Iscrizione | Disclaimer

   EN    FR    IT 

 










Sommario :    VFR   VFR Marginale   IFR   IFR Intensivo   IFR Molto Intensivo
Visibilità : 
Base nubi : 
>= 8 km
>= 3000ft
5 / 8 km
1000 / 3000 ft
1500m / 5 km
500 / 1000 ft
800 / 1500m
200 / 500 ft
< 800m
< 200 ft
Simboli :   Temporali  Nebbia  Neve Forte  Precipitazioni Forti  Vento > 20 kt
SIGMETs :   Varie  Temporali  Ghiacco  Turbolenza  Onda orograficha  Ceneri Vulcaniche






- Altitudine del aeroporto : 290 ft
- Codice IATA : ACI


EGJA - Alderney

ULTIMO METAR :
  • 300920Z 24012KT 9999 FEW018 15/10 Q1010

METARs OBSOLETI :
  • 300850Z 24010KT 9999 FEW018 15/10 Q1010
  • 300820Z 25010KT 9999 FEW022 15/11 Q1010
  • 300750Z 25008KT 9999 FEW025 15/11 Q1011
  • 300720Z 24007KT 9999 FEW025 14/09 Q1010

TAF TAF EGJA
Valido dal 30 a 09 ore il 30 a 18 ore UTC


300757Z 3009/3018 24007KT 9999 FEW025
BECMG 3009/3012 23017KT
BECMG 3013/3016 22027KT 7000 RA BKN010
PROB40
TEMPO 3015/3018 3000 RADZ BKN005



MetMap, La meteo Aeronautica in un colpo d'occhio ! - Copyright ORBIFLY Dicembre 2007 - Disclaimer

ORBIFLY MET'MAP TEAM :

Programmazione e sviluppo : Alexandra Zaïnal
Concezione : Baudouin d'Aumeries
Supporto tecnico e logistico : Manuel Goepfert
Aiuto : Marc-Olivier Méhu
Aiuto per la traduzione : Arnaldo La Scala




FONTI E CREDITI :

   NOAA